This is the latest recevied weather packets stored in our database for station/object KE9DBJ-13. If no packets are shown the sender has not sent any weather packets the latest 10 day(s).
| Time | Temp. | Humidity | Pressure | Rain* | Wind** | Luminosity | Snow |
|---|---|---|---|---|---|---|---|
| 1788375603 | 36.67° C | 49% | 1015.6 hPa | 0 mm | - | - | - |
| 1788375003 | 36.67° C | 51% | 1015.7 hPa | 0 mm | - | - | - |
| 1788373802 | 36.11° C | 53% | 1016 hPa | 0 mm | - | - | - |
| 1788373202 | 35° C | 51% | 1016.1 hPa | 0 mm | - | - | - |
| 1788372602 | 36.67° C | 51% | 1016 hPa | 0 mm | - | - | - |
| 1788370202 | 35.56° C | 52% | 1016.5 hPa | 0 mm | - | - | - |
| 1788369002 | 35.56° C | 54% | 1016.5 hPa | 0 mm | - | - | - |
| 1788365403 | 33.89° C | 61% | 1017.1 hPa | 0 mm | - | - | - |
| 1788364203 | 33.89° C | 63% | 1017.2 hPa | 0 mm | - | - | - |
| 1788358802 | 29.44° C | 78% | 1017.6 hPa | 0 mm | - | - | - |
| 1788356403 | 24.44° C | 89% | 1018 hPa | 0 mm | - | - | - |
| 1788355803 | 23.33° C | 91% | 1018.1 hPa | 0 mm | - | - | - |
| 1788355203 | 22.78° C | 93% | 1018.1 hPa | 0 mm | - | - | - |
| 1788354003 | 22.22° C | 93% | 1018.2 hPa | 0 mm | - | - | - |
| 1788352802 | 21.67° C | 93% | 1018.1 hPa | 0 mm | - | - | - |
| 1788352202 | 21.11° C | 93% | 1018.1 hPa | 0 mm | - | - | - |
| 1788351602 | 21.11° C | 93% | 1017.9 hPa | 0 mm | - | - | - |
| 1788351002 | 20.56° C | 93% | 1017.7 hPa | 0 mm | - | - | - |
| 1788349202 | 20° C | 92% | 1017.5 hPa | 0 mm | - | - | - |
| 1788348602 | 20° C | 92% | 1017.5 hPa | 0 mm | - | - | - |
| 1788348003 | 20° C | 92% | 1017.5 hPa | 0 mm | - | - | - |
| 1788347403 | 20° C | 92% | 1017.4 hPa | 0 mm | - | - | - |
| 1788346803 | 20° C | 92% | 1017.4 hPa | 0 mm | - | - | - |
| 1788346203 | 20° C | 92% | 1017.5 hPa | 0 mm | - | - | - |
| 1788345603 | 20° C | 92% | 1017.4 hPa | 0 mm | - | - | - |
* Rain latest hour (hover to see other rain measurements)
** Current wind speed in m/s (hover to see current wind gust speed)